sensor_id;sensor_type;location;lat;lon;timestamp;pressure;altitude;pressure_sealevel;temperature;humidity
13709;BME280;54933;51.908;7.730;2023-03-01T00:00:10;102425.88;;;20.74;60.23
13709;BME280;54933;51.908;7.730;2023-03-01T00:02:36;102421.31;;;20.74;59.97
13709;BME280;54933;51.908;7.730;2023-03-01T00:05:01;102419.66;;;20.73;59.97
13709;BME280;54933;51.908;7.730;2023-03-01T00:07:27;102422.34;;;20.73;59.89
13709;BME280;54933;51.908;7.730;2023-03-01T00:09:52;102418.81;;;20.73;60.11
13709;BME280;54933;51.908;7.730;2023-03-01T00:12:17;102419.66;;;20.73;60.17
13709;BME280;54933;51.908;7.730;2023-03-01T00:14:42;102425.06;;;20.73;60.09
13709;BME280;54933;51.908;7.730;2023-03-01T00:17:08;102419.66;;;20.73;59.92
13709;BME280;54933;51.908;7.730;2023-03-01T00:19:33;102426.91;;;20.73;60.07
13709;BME280;54933;51.908;7.730;2023-03-01T00:21:59;102424.19;;;20.73;60.09
13709;BME280;54933;51.908;7.730;2023-03-01T00:24:24;102420.66;;;20.72;59.95
13709;BME280;54933;51.908;7.730;2023-03-01T00:26:52;102414.44;;;20.72;60.06
13709;BME280;54933;51.908;7.730;2023-03-01T00:29:18;102423.34;;;20.72;59.98
13709;BME280;54933;51.908;7.730;2023-03-01T00:31:43;102420.66;;;20.72;59.87
13709;BME280;54933;51.908;7.730;2023-03-01T00:34:09;102415.25;;;20.72;60.08
13709;BME280;54933;51.908;7.730;2023-03-01T00:36:36;102410.88;;;20.71;59.74
13709;BME280;54933;51.908;7.730;2023-03-01T00:39:04;102409.84;;;20.72;60.04
13709;BME280;54933;51.908;7.730;2023-03-01T00:41:29;102411.72;;;20.72;59.96
13709;BME280;54933;51.908;7.730;2023-03-01T00:43:55;102410.88;;;20.71;60.03
13709;BME280;54933;51.908;7.730;2023-03-01T00:46:23;102405.47;;;20.71;59.79
13709;BME280;54933;51.908;7.730;2023-03-01T00:48:49;102408.16;;;20.71;59.95
13709;BME280;54933;51.908;7.730;2023-03-01T00:51:17;102408.16;;;20.71;60.00
13709;BME280;54933;51.908;7.730;2023-03-01T00:53:43;102401.91;;;20.71;60.05
13709;BME280;54933;51.908;7.730;2023-03-01T00:56:10;102400.06;;;20.71;59.95
13709;BME280;54933;51.908;7.730;2023-03-01T00:58:36;102401.09;;;20.70;60.07
13709;BME280;54933;51.908;7.730;2023-03-01T01:01:09;102396.50;;;20.71;60.08
13709;BME280;54933;51.908;7.730;2023-03-01T01:03:46;102401.91;;;20.71;59.88
13709;BME280;54933;51.908;7.730;2023-03-01T01:06:17;102403.78;;;20.70;60.02
13709;BME280;54933;51.908;7.730;2023-03-01T01:08:42;102404.63;;;20.71;59.89
13709;BME280;54933;51.908;7.730;2023-03-01T01:11:09;102401.09;;;20.70;59.69
13709;BME280;54933;51.908;7.730;2023-03-01T01:13:35;102418.13;;;20.71;60.03
13709;BME280;54933;51.908;7.730;2023-03-01T01:16:01;102420.00;;;20.70;59.82
13709;BME280;54933;51.908;7.730;2023-03-01T01:18:27;102404.78;;;20.69;59.88
13709;BME280;54933;51.908;7.730;2023-03-01T01:20:52;102404.78;;;20.69;59.66
13709;BME280;54933;51.908;7.730;2023-03-01T01:23:17;102397.53;;;20.70;60.02
13709;BME280;54933;51.908;7.730;2023-03-01T01:25:43;102391.28;;;20.69;59.58
13709;BME280;54933;51.908;7.730;2023-03-01T01:28:08;102391.28;;;20.69;59.84
13709;BME280;54933;51.908;7.730;2023-03-01T01:30:33;102396.69;;;20.69;59.82
13709;BME280;54933;51.908;7.730;2023-03-01T01:32:58;102385.88;;;20.69;59.70
13709;BME280;54933;51.908;7.730;2023-03-01T01:35:24;102392.13;;;20.70;59.83
13709;BME280;54933;51.908;7.730;2023-03-01T01:37:49;102389.63;;;20.68;59.97
13709;BME280;54933;51.908;7.730;2023-03-01T01:40:15;102386.91;;;20.68;59.75
13709;BME280;54933;51.908;7.730;2023-03-01T01:42:40;102383.38;;;20.68;59.90
13709;BME280;54933;51.908;7.730;2023-03-01T01:45:33;102384.22;;;20.68;59.87
13709;BME280;54933;51.908;7.730;2023-03-01T01:48:12;102387.78;;;20.69;59.88
13709;BME280;54933;51.908;7.730;2023-03-01T01:50:40;102383.38;;;20.68;59.83
13709;BME280;54933;51.908;7.730;2023-03-01T01:53:12;102375.25;;;20.68;59.62
13709;BME280;54933;51.908;7.730;2023-03-01T01:55:42;102371.72;;;20.67;59.98
13709;BME280;54933;51.908;7.730;2023-03-01T01:58:11;102369.00;;;20.67;59.87
13709;BME280;54933;51.908;7.730;2023-03-01T02:00:38;102366.31;;;20.67;59.70
13709;BME280;54933;51.908;7.730;2023-03-01T02:03:10;102369.00;;;20.67;59.91
13709;BME280;54933;51.908;7.730;2023-03-01T02:05:43;102361.75;;;20.68;59.79
13709;BME280;54933;51.908;7.730;2023-03-01T02:08:13;102359.06;;;20.68;59.85
13709;BME280;54933;51.908;7.730;2023-03-01T02:10:41;102360.91;;;20.67;59.68
13709;BME280;54933;51.908;7.730;2023-03-01T02:13:07;102350.09;;;20.67;59.59
13709;BME280;54933;51.908;7.730;2023-03-01T02:15:34;102344.69;;;20.67;59.95
13709;BME280;54933;51.908;7.730;2023-03-01T02:18:01;102344.69;;;20.67;59.67
13709;BME280;54933;51.908;7.730;2023-03-01T02:20:35;102355.50;;;20.67;59.66
13709;BME280;54933;51.908;7.730;2023-03-01T02:23:02;102350.09;;;20.67;59.87
13709;BME280;54933;51.908;7.730;2023-03-01T02:25:38;102350.09;;;20.67;59.80
13709;BME280;54933;51.908;7.730;2023-03-01T02:30:36;102343.88;;;20.67;59.66
13709;BME280;54933;51.908;7.730;2023-03-01T02:33:03;102348.44;;;20.66;59.76
13709;BME280;54933;51.908;7.730;2023-03-01T02:35:38;102343.88;;;20.67;59.83
13709;BME280;54933;51.908;7.730;2023-03-01T02:38:06;102343.03;;;20.66;59.63
13709;BME280;54933;51.908;7.730;2023-03-01T02:40:34;102351.97;;;20.67;59.35
13709;BME280;54933;51.908;7.730;2023-03-01T02:43:01;102345.72;;;20.66;59.85
13709;BME280;54933;51.908;7.730;2023-03-01T02:45:31;102351.97;;;20.67;59.53
13709;BME280;54933;51.908;7.730;2023-03-01T02:47:57;102347.56;;;20.66;59.72
13709;BME280;54933;51.908;7.730;2023-03-01T02:50:25;102353.81;;;20.66;59.78
13709;BME280;54933;51.908;7.730;2023-03-01T02:55:42;102349.28;;;20.67;59.67
13709;BME280;54933;51.908;7.730;2023-03-01T02:58:08;102349.28;;;20.67;59.60
13709;BME280;54933;51.908;7.730;2023-03-01T03:00:37;102353.81;;;20.66;59.63
13709;BME280;54933;51.908;7.730;2023-03-01T03:03:06;102347.56;;;20.66;59.50
13709;BME280;54933;51.908;7.730;2023-03-01T03:05:32;102347.56;;;20.66;59.66
13709;BME280;54933;51.908;7.730;2023-03-01T03:07:59;102339.47;;;20.66;59.76
13709;BME280;54933;51.908;7.730;2023-03-01T03:10:28;102344.88;;;20.66;59.59
13709;BME280;54933;51.908;7.730;2023-03-01T03:13:14;102339.28;;;20.67;59.60
13709;BME280;54933;51.908;7.730;2023-03-01T03:15:42;102332.22;;;20.66;59.62
13709;BME280;54933;51.908;7.730;2023-03-01T03:18:14;102333.06;;;20.67;59.53
13709;BME280;54933;51.908;7.730;2023-03-01T03:20:41;102329.53;;;20.66;59.60
13709;BME280;54933;51.908;7.730;2023-03-01T03:23:07;102337.63;;;20.66;59.67
13709;BME280;54933;51.908;7.730;2023-03-01T03:25:32;102332.22;;;20.66;59.44
13709;BME280;54933;51.908;7.730;2023-03-01T03:28:03;102326.81;;;20.66;59.63
13709;BME280;54933;51.908;7.730;2023-03-01T03:30:35;102328.50;;;20.67;59.52
13709;BME280;54933;51.908;7.730;2023-03-01T03:33:01;102326.81;;;20.66;59.57
13709;BME280;54933;51.908;7.730;2023-03-01T03:35:31;102316.00;;;20.66;59.58
13709;BME280;54933;51.908;7.730;2023-03-01T03:37:59;102314.16;;;20.67;59.43
13709;BME280;54933;51.908;7.730;2023-03-01T03:40:34;102316.00;;;20.66;59.44
13709;BME280;54933;51.908;7.730;2023-03-01T03:43:01;102316.00;;;20.66;59.43
13709;BME280;54933;51.908;7.730;2023-03-01T03:45:26;102299.81;;;20.66;59.57
13709;BME280;54933;51.908;7.730;2023-03-01T03:47:52;102305.22;;;20.66;59.48
13709;BME280;54933;51.908;7.730;2023-03-01T03:50:17;102303.38;;;20.67;59.49
13709;BME280;54933;51.908;7.730;2023-03-01T03:52:43;102307.91;;;20.66;59.50
13709;BME280;54933;51.908;7.730;2023-03-01T03:55:10;102298.97;;;20.66;59.56
13709;BME280;54933;51.908;7.730;2023-03-01T03:57:40;102313.31;;;20.66;59.50
13709;BME280;54933;51.908;7.730;2023-03-01T04:00:09;102299.81;;;20.66;59.52
13709;BME280;54933;51.908;7.730;2023-03-01T04:02:41;102309.75;;;20.66;59.33
13709;BME280;54933;51.908;7.730;2023-03-01T04:05:08;102309.75;;;20.66;59.42
13709;BME280;54933;51.908;7.730;2023-03-01T04:07:34;102313.31;;;20.66;59.25
13709;BME280;54933;51.908;7.730;2023-03-01T04:10:00;102316.88;;;20.67;59.31
13709;BME280;54933;51.908;7.730;2023-03-01T04:12:25;102296.06;;;20.67;59.49
13709;BME280;54933;51.908;7.730;2023-03-01T04:14:51;102298.63;;;20.69;59.46
13709;BME280;54933;51.908;7.730;2023-03-01T04:17:16;102298.63;;;20.69;59.45
13709;BME280;54933;51.908;7.730;2023-03-01T04:19:41;102293.22;;;20.69;59.45
13709;BME280;54933;51.908;7.730;2023-03-01T04:22:09;102290.53;;;20.69;59.53
13709;BME280;54933;51.908;7.730;2023-03-01T04:24:36;102294.91;;;20.70;59.51
13709;BME280;54933;51.908;7.730;2023-03-01T04:27:01;102283.25;;;20.69;59.68
13709;BME280;54933;51.908;7.730;2023-03-01T04:29:27;102283.25;;;20.69;59.63
13709;BME280;54933;51.908;7.730;2023-03-01T04:31:52;102282.41;;;20.69;59.51
13709;BME280;54933;51.908;7.730;2023-03-01T04:34:17;102285.94;;;20.69;59.83
13709;BME280;54933;51.908;7.730;2023-03-01T04:36:43;102277.03;;;20.69;59.67
13709;BME280;54933;51.908;7.730;2023-03-01T04:39:08;102280.53;;;20.69;59.63
13709;BME280;54933;51.908;7.730;2023-03-01T04:41:38;102278.88;;;20.68;59.71
13709;BME280;54933;51.908;7.730;2023-03-01T04:44:07;102281.56;;;20.68;59.44
13709;BME280;54933;51.908;7.730;2023-03-01T04:46:35;102277.03;;;20.69;59.49
13709;BME280;54933;51.908;7.730;2023-03-01T04:49:01;102283.41;;;20.68;59.61
13709;BME280;54933;51.908;7.730;2023-03-01T04:51:26;102285.28;;;20.67;59.69
13709;BME280;54933;51.908;7.730;2023-03-01T04:53:51;102279.88;;;20.67;59.50
13709;BME280;54933;51.908;7.730;2023-03-01T04:56:17;102280.72;;;20.68;59.47
13709;BME280;54933;51.908;7.730;2023-03-01T04:58:48;102284.44;;;20.67;59.67
13709;BME280;54933;51.908;7.730;2023-03-01T05:01:16;102286.13;;;20.68;59.46
13709;BME280;54933;51.908;7.730;2023-03-01T05:03:47;102276.16;;;20.68;59.50
13709;BME280;54933;51.908;7.730;2023-03-01T05:06:14;102277.84;;;20.69;59.16
13709;BME280;54933;51.908;7.730;2023-03-01T05:08:41;102279.53;;;20.70;59.55
13709;BME280;54933;51.908;7.730;2023-03-01T05:11:07;102276.84;;;20.70;59.60
13709;BME280;54933;51.908;7.730;2023-03-01T05:13:37;102282.25;;;20.70;59.60
13709;BME280;54933;51.908;7.730;2023-03-01T05:16:03;102279.53;;;20.70;59.56
13709;BME280;54933;51.908;7.730;2023-03-01T05:18:32;102282.25;;;20.70;59.81
13709;BME280;54933;51.908;7.730;2023-03-01T05:21:06;102283.25;;;20.69;59.86
13709;BME280;54933;51.908;7.730;2023-03-01T05:23:32;102284.94;;;20.70;59.76
13709;BME280;54933;51.908;7.730;2023-03-01T05:25:59;102277.84;;;20.69;59.57
13709;BME280;54933;51.908;7.730;2023-03-01T05:28:26;102277.03;;;20.69;59.77
13709;BME280;54933;51.908;7.730;2023-03-01T05:30:52;102278.03;;;20.68;59.62
13709;BME280;54933;51.908;7.730;2023-03-01T05:33:17;102282.41;;;20.69;59.93
13709;BME280;54933;51.908;7.730;2023-03-01T05:35:44;102281.56;;;20.68;59.78
13709;BME280;54933;51.908;7.730;2023-03-01T05:38:11;102277.84;;;20.69;59.85
13709;BME280;54933;51.908;7.730;2023-03-01T05:40:40;102281.56;;;20.68;59.71
13709;BME280;54933;51.908;7.730;2023-03-01T05:43:06;102279.72;;;20.69;59.36
13709;BME280;54933;51.908;7.730;2023-03-01T05:45:31;102278.69;;;20.70;59.28
13709;BME280;54933;51.908;7.730;2023-03-01T05:47:57;102275.13;;;20.69;59.25
13709;BME280;54933;51.908;7.730;2023-03-01T05:50:26;102277.84;;;20.69;59.20
13709;BME280;54933;51.908;7.730;2023-03-01T05:52:56;102279.53;;;20.70;59.38
13709;BME280;54933;51.908;7.730;2023-03-01T05:55:22;102273.28;;;20.70;59.29
13709;BME280;54933;51.908;7.730;2023-03-01T05:57:48;102280.53;;;20.69;59.27
13709;BME280;54933;51.908;7.730;2023-03-01T06:00:14;102272.44;;;20.69;59.32
13709;BME280;54933;51.908;7.730;2023-03-01T06:02:41;102272.44;;;20.69;59.40
13709;BME280;54933;51.908;7.730;2023-03-01T06:05:08;102263.50;;;20.69;59.29
13709;BME280;54933;51.908;7.730;2023-03-01T06:07:34;102267.03;;;20.69;59.39
13709;BME280;54933;51.908;7.730;2023-03-01T06:10:00;102265.38;;;20.68;59.17
13709;BME280;54933;51.908;7.730;2023-03-01T06:12:25;102254.56;;;20.68;59.35
13709;BME280;54933;51.908;7.730;2023-03-01T06:14:50;102265.38;;;20.68;59.45
13709;BME280;54933;51.908;7.730;2023-03-01T06:17:16;102259.97;;;20.68;59.62
13709;BME280;54933;51.908;7.730;2023-03-01T06:19:41;102264.34;;;20.69;59.60
13709;BME280;54933;51.908;7.730;2023-03-01T06:22:06;102265.38;;;20.68;59.85
13709;BME280;54933;51.908;7.730;2023-03-01T06:24:32;102262.66;;;20.68;59.63
13709;BME280;54933;51.908;7.730;2023-03-01T06:26:58;102267.03;;;20.69;59.63
13709;BME280;54933;51.908;7.730;2023-03-01T06:29:23;102267.03;;;20.69;59.68
13709;BME280;54933;51.908;7.730;2023-03-01T06:31:49;102264.34;;;20.69;59.83
13709;BME280;54933;51.908;7.730;2023-03-01T06:34:14;102257.13;;;19.76;58.53
13709;BME280;54933;51.908;7.730;2023-03-01T06:36:40;102252.97;;;19.10;54.70
13709;BME280;54933;51.908;7.730;2023-03-01T06:39:05;102266.13;;;19.53;53.00
13709;BME280;54933;51.908;7.730;2023-03-01T06:41:31;102267.72;;;19.78;52.64
13709;BME280;54933;51.908;7.730;2023-03-01T06:43:57;102272.09;;;19.95;53.03
13709;BME280;54933;51.908;7.730;2023-03-01T06:46:23;102278.78;;;20.07;53.72
13709;BME280;54933;51.908;7.730;2023-03-01T06:48:49;102275.09;;;20.16;54.05
13709;BME280;54933;51.908;7.730;2023-03-01T06:51:14;102252.22;;;19.80;52.84
13709;BME280;54933;51.908;7.730;2023-03-01T06:53:39;102266.00;;;19.93;52.21
13709;BME280;54933;51.908;7.730;2023-03-01T06:56:05;102275.44;;;20.05;52.57
13709;BME280;54933;51.908;7.730;2023-03-01T06:58:30;102271.00;;;20.12;53.26
13709;BME280;54933;51.908;7.730;2023-03-01T07:00:55;102272.88;;;20.19;53.90
13709;BME280;54933;51.908;7.730;2023-03-01T07:03:21;102272.34;;;20.24;54.17
13709;BME280;54933;51.908;7.730;2023-03-01T07:05:48;102266.59;;;20.27;54.55
13709;BME280;54933;51.908;7.730;2023-03-01T07:08:14;102267.94;;;20.31;54.91
13709;BME280;54933;51.908;7.730;2023-03-01T07:10:39;102267.59;;;20.34;55.10
13709;BME280;54933;51.908;7.730;2023-03-01T07:13:05;102265.53;;;20.36;55.26
13709;BME280;54933;51.908;7.730;2023-03-01T07:15:32;102260.78;;;20.38;55.45
13709;BME280;54933;51.908;7.730;2023-03-01T07:17:57;102267.72;;;20.41;55.84
13709;BME280;54933;51.908;7.730;2023-03-01T07:20:23;102257.75;;;20.41;55.93
13709;BME280;54933;51.908;7.730;2023-03-01T07:22:51;102258.22;;;20.45;56.08
13709;BME280;54933;51.908;7.730;2023-03-01T07:25:16;102260.75;;;20.46;56.14
13709;BME280;54933;51.908;7.730;2023-03-01T07:27:41;102257.88;;;20.48;56.38
13709;BME280;54933;51.908;7.730;2023-03-01T07:30:07;102255.84;;;20.50;56.47
13709;BME280;54933;51.908;7.730;2023-03-01T07:32:33;102263.75;;;20.51;56.72
13709;BME280;54933;51.908;7.730;2023-03-01T07:34:58;102260.06;;;20.52;56.54
13709;BME280;54933;51.908;7.730;2023-03-01T07:37:23;102263.41;;;20.54;56.69
13709;BME280;54933;51.908;7.730;2023-03-01T07:39:48;102249.91;;;20.54;56.82
13709;BME280;54933;51.908;7.730;2023-03-01T07:42:14;102246.19;;;20.55;56.79
13709;BME280;54933;51.908;7.730;2023-03-01T07:44:39;102247.06;;;20.56;56.96
13709;BME280;54933;51.908;7.730;2023-03-01T07:47:04;102246.88;;;20.57;57.04
13709;BME280;54933;51.908;7.730;2023-03-01T07:49:29;102259.34;;;20.58;56.94
13709;BME280;54933;51.908;7.730;2023-03-01T07:51:55;102251.25;;;20.58;57.29
13709;BME280;54933;51.908;7.730;2023-03-01T07:54:21;102256.47;;;20.60;57.01
13709;BME280;54933;51.908;7.730;2023-03-01T07:56:46;102256.28;;;20.61;57.15
13709;BME280;54933;51.908;7.730;2023-03-01T07:59:11;102253.59;;;20.61;57.14
13709;BME280;54933;51.908;7.730;2023-03-01T08:01:37;102254.44;;;20.62;57.04
13709;BME280;54933;51.908;7.730;2023-03-01T08:04:02;102254.25;;;20.63;57.09
13709;BME280;54933;51.908;7.730;2023-03-01T08:06:27;102246.16;;;20.63;57.15
13709;BME280;54933;51.908;7.730;2023-03-01T08:08:53;102255.91;;;20.64;57.27
13709;BME280;54933;51.908;7.730;2023-03-01T08:11:20;102248.66;;;20.65;57.16
13709;BME280;54933;51.908;7.730;2023-03-01T08:13:47;102247.81;;;20.64;57.35
13709;BME280;54933;51.908;7.730;2023-03-01T08:16:14;102248.50;;;20.66;57.29
13709;BME280;54933;51.908;7.730;2023-03-01T08:18:40;102251.19;;;20.66;57.44
13709;BME280;54933;51.908;7.730;2023-03-01T08:21:13;102252.03;;;20.67;57.49
13709;BME280;54933;51.908;7.730;2023-03-01T08:23:40;102242.06;;;20.67;57.28
13709;BME280;54933;51.908;7.730;2023-03-01T08:26:09;102252.72;;;20.69;57.33
13709;BME280;54933;51.908;7.730;2023-03-01T08:28:35;102256.22;;;20.69;57.78
13709;BME280;54933;51.908;7.730;2023-03-01T08:31:00;102248.97;;;20.70;57.46
13709;BME280;54933;51.908;7.730;2023-03-01T08:33:26;102247.13;;;20.70;57.50
13709;BME280;54933;51.908;7.730;2023-03-01T08:35:51;102238.84;;;20.72;57.60
13709;BME280;54933;51.908;7.730;2023-03-01T08:38:16;102239.66;;;20.72;57.59
13709;BME280;54933;51.908;7.730;2023-03-01T08:40:41;102235.97;;;20.73;57.41
13709;BME280;54933;51.908;7.730;2023-03-01T08:43:07;102234.94;;;20.74;57.26
13709;BME280;54933;51.908;7.730;2023-03-01T08:45:32;102229.53;;;20.74;57.64
13709;BME280;54933;51.908;7.730;2023-03-01T08:47:57;102232.03;;;20.76;57.50
13709;BME280;54933;51.908;7.730;2023-03-01T08:50:23;102241.84;;;20.77;57.74
13709;BME280;54933;51.908;7.730;2023-03-01T08:52:49;102234.56;;;20.77;57.63
13709;BME280;54933;51.908;7.730;2023-03-01T08:55:14;102230.84;;;20.78;57.75
13709;BME280;54933;51.908;7.730;2023-03-01T08:57:42;102228.97;;;20.79;57.62
13709;BME280;54933;51.908;7.730;2023-03-01T09:00:08;102228.97;;;20.79;57.76
13709;BME280;54933;51.908;7.730;2023-03-01T09:02:33;102229.81;;;20.79;57.65
13709;BME280;54933;51.908;7.730;2023-03-01T09:05:00;102228.78;;;20.80;57.81
13709;BME280;54933;51.908;7.730;2023-03-01T09:07:26;102223.41;;;20.80;57.70
13709;BME280;54933;51.908;7.730;2023-03-01T09:09:53;102226.09;;;20.80;57.99
13709;BME280;54933;51.908;7.730;2023-03-01T09:12:19;102226.94;;;20.81;57.75
13709;BME280;54933;51.908;7.730;2023-03-01T09:14:44;102226.09;;;20.80;58.00
13709;BME280;54933;51.908;7.730;2023-03-01T09:17:10;102225.09;;;20.81;57.66
13709;BME280;54933;51.908;7.730;2023-03-01T09:19:35;102232.16;;;20.82;58.00
13709;BME280;54933;51.908;7.730;2023-03-01T09:22:00;102218.66;;;20.82;57.71
13709;BME280;54933;51.908;7.730;2023-03-01T09:24:25;102216.81;;;20.83;57.88
13709;BME280;54933;51.908;7.730;2023-03-01T09:26:54;102217.66;;;20.83;58.02
13709;BME280;54933;51.908;7.730;2023-03-01T09:29:20;102214.97;;;20.83;57.74
13709;BME280;54933;51.908;7.730;2023-03-01T09:31:45;102218.28;;;20.85;57.70
13709;BME280;54933;51.908;7.730;2023-03-01T09:34:11;102212.06;;;20.85;58.00
13709;BME280;54933;51.908;7.730;2023-03-01T09:36:36;102211.03;;;20.86;57.91
13709;BME280;54933;51.908;7.730;2023-03-01T09:39:02;102202.94;;;20.86;57.99
13709;BME280;54933;51.908;7.730;2023-03-01T09:41:59;102208.34;;;20.86;57.92
13709;BME280;54933;51.908;7.730;2023-03-01T09:47:16;102194.63;;;20.87;58.03
13709;BME280;54933;51.908;7.730;2023-03-01T09:49:43;102200.03;;;20.87;58.00
13709;BME280;54933;51.908;7.730;2023-03-01T09:52:38;102192.97;;;20.86;58.08
13709;BME280;54933;51.908;7.730;2023-03-01T09:55:14;102191.94;;;20.87;58.20
13709;BME280;54933;51.908;7.730;2023-03-01T09:57:53;102193.63;;;20.88;57.98
13709;BME280;54933;51.908;7.730;2023-03-01T10:00:44;102193.47;;;20.90;58.23
13709;BME280;54933;51.908;7.730;2023-03-01T10:03:26;102187.19;;;20.89;58.17
13709;BME280;54933;51.908;7.730;2023-03-01T10:06:01;102187.88;;;20.91;58.23
13709;BME280;54933;51.908;7.730;2023-03-01T10:09:05;102190.56;;;20.91;58.22
13709;BME280;54933;51.908;7.730;2023-03-01T10:11:38;102189.53;;;20.92;58.44
13709;BME280;54933;51.908;7.730;2023-03-01T10:17:01;102184.97;;;20.93;58.54
13709;BME280;54933;51.908;7.730;2023-03-01T10:19:45;102174.16;;;20.93;58.19
13709;BME280;54933;51.908;7.730;2023-03-01T10:22:15;102172.28;;;20.93;58.25
13709;BME280;54933;51.908;7.730;2023-03-01T10:24:41;102180.41;;;20.93;58.16
13709;BME280;54933;51.908;7.730;2023-03-01T10:27:14;102174.00;;;20.94;58.31
13709;BME280;54933;51.908;7.730;2023-03-01T10:32:36;102168.59;;;20.94;58.29
13709;BME280;54933;51.908;7.730;2023-03-01T10:35:15;102179.41;;;20.94;58.39
13709;BME280;54933;51.908;7.730;2023-03-01T10:37:57;102168.59;;;20.94;58.13
13709;BME280;54933;51.908;7.730;2023-03-01T10:40:22;102168.59;;;20.94;58.25
13709;BME280;54933;51.908;7.730;2023-03-01T10:42:48;102162.16;;;20.95;58.44
13709;BME280;54933;51.908;7.730;2023-03-01T10:47:45;102164.03;;;20.95;58.30
13709;BME280;54933;51.908;7.730;2023-03-01T10:50:21;102154.88;;;20.96;58.34
13709;BME280;54933;51.908;7.730;2023-03-01T10:53:02;102162.84;;;20.97;58.19
13709;BME280;54933;51.908;7.730;2023-03-01T10:55:33;102153.03;;;20.96;58.21
13709;BME280;54933;51.908;7.730;2023-03-01T11:00:32;102155.75;;;20.96;58.13
13709;BME280;54933;51.908;7.730;2023-03-01T11:05:24;102141.22;;;20.97;58.09
13709;BME280;54933;51.908;7.730;2023-03-01T11:07:55;102141.22;;;20.97;58.27
13709;BME280;54933;51.908;7.730;2023-03-01T11:10:47;102150.00;;;20.99;58.17
13709;BME280;54933;51.908;7.730;2023-03-01T11:13:15;102150.81;;;21.00;58.06
13709;BME280;54933;51.908;7.730;2023-03-01T11:15:42;102140.84;;;21.00;58.21
13709;BME280;54933;51.908;7.730;2023-03-01T11:18:19;102137.16;;;21.01;58.43
13709;BME280;54933;51.908;7.730;2023-03-01T11:20:46;102128.19;;;21.01;58.54
13709;BME280;54933;51.908;7.730;2023-03-01T11:23:15;102125.31;;;21.02;58.63
13709;BME280;54933;51.908;7.730;2023-03-01T11:25:46;102122.59;;;21.02;58.73
13709;BME280;54933;51.908;7.730;2023-03-01T11:28:16;102129.84;;;21.02;58.53
13709;BME280;54933;51.908;7.730;2023-03-01T11:30:55;102129.84;;;21.02;58.48
13709;BME280;54933;51.908;7.730;2023-03-01T11:33:47;102132.56;;;21.02;58.76
13709;BME280;54933;51.908;7.730;2023-03-01T11:38:53;102118.22;;;21.01;58.86
13709;BME280;54933;51.908;7.730;2023-03-01T11:41:21;102119.22;;;21.00;58.58
13709;BME280;54933;51.908;7.730;2023-03-01T11:44:09;102120.09;;;21.01;58.63
13709;BME280;54933;51.908;7.730;2023-03-01T11:46:45;102118.22;;;21.01;58.73
13709;BME280;54933;51.908;7.730;2023-03-01T11:52:12;102114.69;;;21.01;58.82
13709;BME280;54933;51.908;7.730;2023-03-01T11:54:57;102119.03;;;21.02;58.80
13709;BME280;54933;51.908;7.730;2023-03-01T12:08:03;102105.53;;;21.02;59.01
13709;BME280;54933;51.908;7.730;2023-03-01T12:16:13;102103.88;;;21.01;58.79
13709;BME280;54933;51.908;7.730;2023-03-01T12:19:01;102098.47;;;21.01;59.14
13709;BME280;54933;51.908;7.730;2023-03-01T12:21:43;102093.91;;;21.01;58.85
13709;BME280;54933;51.908;7.730;2023-03-01T12:30:38;102070.59;;;21.00;59.02
13709;BME280;54933;51.908;7.730;2023-03-01T12:33:30;102065.19;;;21.00;59.14
13709;BME280;54933;51.908;7.730;2023-03-01T12:36:13;102065.19;;;21.00;58.91
13709;BME280;54933;51.908;7.730;2023-03-01T12:47:14;102055.41;;;20.99;59.24
13709;BME280;54933;51.908;7.730;2023-03-01T12:49:44;102051.88;;;20.99;59.17
13709;BME280;54933;51.908;7.730;2023-03-01T12:52:16;102050.00;;;20.99;59.13
13709;BME280;54933;51.908;7.730;2023-03-01T12:54:45;102052.72;;;20.99;59.07
13709;BME280;54933;51.908;7.730;2023-03-01T12:57:26;102041.91;;;20.99;59.25
13709;BME280;54933;51.908;7.730;2023-03-01T13:00:17;102031.91;;;21.00;59.08
13709;BME280;54933;51.908;7.730;2023-03-01T13:02:53;102025.69;;;20.99;58.89
13709;BME280;54933;51.908;7.730;2023-03-01T13:05:24;102024.66;;;21.00;59.41
13709;BME280;54933;51.908;7.730;2023-03-01T13:08:14;102019.44;;;20.99;59.60
13709;BME280;54933;51.908;7.730;2023-03-01T13:10:43;102032.09;;;20.98;59.17
13709;BME280;54933;51.908;7.730;2023-03-01T13:15:39;102021.28;;;20.98;58.98
13709;BME280;54933;51.908;7.730;2023-03-01T13:23:23;102011.13;;;21.00;59.10
13709;BME280;54933;51.908;7.730;2023-03-01T13:26:12;102001.38;;;20.99;58.98
13709;BME280;54933;51.908;7.730;2023-03-01T13:28:47;102001.38;;;20.99;59.20
13709;BME280;54933;51.908;7.730;2023-03-01T13:33:52;102006.78;;;20.99;59.17
13709;BME280;54933;51.908;7.730;2023-03-01T13:46:48;101995.13;;;20.99;59.02
13709;BME280;54933;51.908;7.730;2023-03-01T13:49:16;102002.38;;;20.98;59.03
13709;BME280;54933;51.908;7.730;2023-03-01T13:51:46;101989.72;;;20.99;59.08
13709;BME280;54933;51.908;7.730;2023-03-01T13:54:14;101986.16;;;20.98;58.96
13709;BME280;54933;51.908;7.730;2023-03-01T13:56:40;101965.38;;;20.99;58.95
13709;BME280;54933;51.908;7.730;2023-03-01T13:59:16;101974.34;;;20.99;58.98
13709;BME280;54933;51.908;7.730;2023-03-01T14:01:42;101981.59;;;20.99;59.09
13709;BME280;54933;51.908;7.730;2023-03-01T14:04:32;101971.66;;;20.99;58.91
13709;BME280;54933;51.908;7.730;2023-03-01T14:07:20;101966.25;;;20.99;59.17
13709;BME280;54933;51.908;7.730;2023-03-01T14:09:50;101960.84;;;20.99;58.75
13709;BME280;54933;51.908;7.730;2023-03-01T14:12:35;101959.97;;;20.99;59.06
13709;BME280;54933;51.908;7.730;2023-03-01T14:15:15;101957.47;;;20.97;59.22
13709;BME280;54933;51.908;7.730;2023-03-01T14:20:32;101951.88;;;20.99;59.05